Time;durP1;ratioP1;P1;durP2;ratioP2;P2;SDS_P1;SDS_P2;PMS_P1;PMS_P2;Temp;Humidity;BMP_temperature;BMP_pressure;BME280_temperature;BME280_humidity;BME280_pressure;Samples;Min_cycle;Max_cycle;Signal;HPM_P1;HPM_P2
2022/05/28 00:00:53;;;;;;;1.50;1.40;;;19.00;58.20;;;;;;6171372;23;20183;-85
2022/05/28 00:03:20;;;;;;;1.95;1.35;;;18.90;58.20;;;;;;6196234;23;20141;-86
2022/05/28 00:05:46;;;;;;;1.63;1.40;;;18.90;58.30;;;;;;6171593;23;20145;-85
2022/05/28 00:08:11;;;;;;;1.35;1.25;;;19.00;58.30;;;;;;6196003;23;20599;-85
2022/05/28 00:10:38;;;;;;;1.30;1.20;;;18.90;58.20;;;;;;6195769;23;20141;-85
2022/05/28 00:13:04;;;;;;;1.48;1.33;;;18.90;58.20;;;;;;6247802;23;20212;-85
2022/05/28 00:15:29;;;;;;;1.50;1.40;;;18.90;58.30;;;;;;6221629;23;20203;-85
2022/05/28 00:17:55;;;;;;;1.33;1.23;;;18.90;58.20;;;;;;6170710;23;20149;-85
2022/05/28 00:20:20;;;;;;;1.35;1.25;;;18.90;58.30;;;;;;6220945;23;20126;-85
2022/05/28 00:22:46;;;;;;;1.60;1.50;;;19.00;58.30;;;;;;6195621;23;20191;-86
2022/05/28 00:25:13;;;;;;;1.30;1.20;;;18.90;58.30;;;;;;6245836;23;20173;-86
2022/05/28 00:27:40;;;;;;;1.52;1.42;;;18.90;58.30;;;;;;6196764;23;20203;-85
2022/05/28 00:30:07;;;;;;;1.50;1.40;;;18.90;58.20;;;;;;6196493;23;20147;-86
2022/05/28 00:32:33;;;;;;;2.30;1.45;;;18.90;58.30;;;;;;6171185;23;20152;-86
2022/05/28 00:34:58;;;;;;;1.40;1.30;;;18.90;58.40;;;;;;6195102;23;20207;-85
2022/05/28 00:37:24;;;;;;;1.60;1.50;;;18.90;58.20;;;;;;6170827;23;20572;-85
2022/05/28 00:39:50;;;;;;;1.25;1.15;;;19.00;58.20;;;;;;6196020;23;20515;-85
2022/05/28 00:42:16;;;;;;;2.03;1.50;;;18.90;58.30;;;;;;6220897;23;20177;-85
2022/05/28 00:44:42;;;;;;;1.60;1.50;;;18.90;58.30;;;;;;6195494;23;20133;-85
2022/05/28 00:47:08;;;;;;;1.40;1.30;;;18.90;58.20;;;;;;6171543;23;20146;-85
2022/05/28 00:49:33;;;;;;;1.27;1.17;;;18.90;58.30;;;;;;6196098;23;20138;-86
2022/05/28 00:52:01;;;;;;;1.58;1.48;;;18.90;58.30;;;;;;6195964;23;20130;-85
2022/05/28 00:54:31;;;;;;;1.50;1.40;;;18.90;58.30;;;;;;6195575;23;20392;-85
2022/05/28 00:56:57;;;;;;;1.50;1.40;;;18.90;58.30;;;;;;6220483;23;20466;-86
2022/05/28 00:59:22;;;;;;;1.33;1.23;;;18.90;58.40;;;;;;6196034;23;20136;-85
2022/05/28 01:01:48;;;;;;;1.60;1.50;;;18.80;58.30;;;;;;6195172;23;20165;-86
2022/05/28 01:04:40;;;;;;;1.38;1.27;;;18.90;58.40;;;;;;6247430;23;20157;-86
2022/05/28 01:07:16;;;;;;;1.55;1.45;;;18.80;58.30;;;;;;6197196;23;20145;-86
2022/05/28 01:10:02;;;;;;;1.63;1.52;;;18.80;58.40;;;;;;6172020;23;20565;-85
2022/05/28 01:12:36;;;;;;;1.42;1.20;;;18.80;58.50;;;;;;6194963;23;20153;-85
2022/05/28 01:15:11;;;;;;;1.15;1.13;;;18.80;58.40;;;;;;6171085;23;20216;-85
2022/05/28 01:17:41;;;;;;;1.30;1.20;;;18.80;58.50;;;;;;6195935;23;20143;-85
2022/05/28 01:20:16;;;;;;;1.50;1.40;;;18.80;58.30;;;;;;6220998;23;20126;-85
2022/05/28 01:23:10;;;;;;;1.50;1.40;;;18.90;58.50;;;;;;6220174;23;20545;-86
2022/05/28 01:25:54;;;;;;;1.60;1.50;;;18.90;58.50;;;;;;6201075;23;20212;-85
2022/05/28 01:28:21;;;;;;;1.67;1.58;;;18.80;58.40;;;;;;6195376;23;20141;-86
2022/05/28 01:30:47;;;;;;;1.50;1.35;;;18.80;58.40;;;;;;6220388;23;20133;-85
2022/05/28 01:33:13;;;;;;;1.42;1.33;;;18.90;58.50;;;;;;6220436;23;20153;-85
2022/05/28 01:35:39;;;;;;;1.45;1.33;;;18.90;58.40;;;;;;6170615;23;20151;-86
2022/05/28 01:38:05;;;;;;;1.23;1.13;;;18.90;58.50;;;;;;6219770;23;20560;-86
2022/05/28 01:40:30;;;;;;;2.10;1.30;;;18.80;58.30;;;;;;6220262;23;20622;-85
2022/05/28 01:42:57;;;;;;;1.70;1.50;;;18.80;58.30;;;;;;6195406;23;20168;-86
2022/05/28 01:45:26;;;;;;;1.40;1.30;;;18.80;58.30;;;;;;6194872;23;20133;-85
2022/05/28 01:47:51;;;;;;;1.50;1.40;;;18.80;58.50;;;;;;6195106;23;20141;-85
2022/05/28 01:50:18;;;;;;;1.50;1.40;;;18.90;58.50;;;;;;6194781;23;20152;-85
2022/05/28 01:52:44;;;;;;;1.92;1.40;;;18.80;58.40;;;;;;6195225;23;20130;-85
2022/05/28 01:55:09;;;;;;;1.50;1.40;;;18.90;58.50;;;;;;6194650;23;20149;-86
2022/05/28 01:57:35;;;;;;;1.63;1.52;;;18.80;58.40;;;;;;6170879;23;20188;-85
2022/05/28 02:00:01;;;;;;;1.30;1.20;;;18.90;58.60;;;;;;6170379;23;20557;-85
2022/05/28 02:02:26;;;;;;;1.45;1.23;;;18.80;59.10;;;;;;6170505;23;20181;-85
2022/05/28 02:04:52;;;;;;;1.50;1.40;;;18.80;58.50;;;;;;6169936;23;20141;-85
2022/05/28 02:07:18;;;;;;;1.92;1.50;;;18.80;58.40;;;;;;6169899;23;20271;-86
2022/05/28 02:09:49;;;;;;;1.50;1.40;;;18.80;58.60;;;;;;6194946;23;20130;-85
2022/05/28 02:12:32;;;;;;;1.30;1.20;;;18.80;58.70;;;;;;6195356;23;20184;-86
2022/05/28 02:15:17;;;;;;;1.85;1.48;;;18.80;58.60;;;;;;6195354;23;20140;-85
2022/05/28 02:17:59;;;;;;;1.50;1.40;;;18.80;58.70;;;;;;6194357;23;20587;-85
2022/05/28 02:20:33;;;;;;;1.25;1.15;;;18.80;58.70;;;;;;6171493;23;20145;-86
2022/05/28 02:23:08;;;;;;;1.50;1.40;;;18.80;58.70;;;;;;6195580;23;20156;-86
2022/05/28 02:25:36;;;;;;;1.30;1.20;;;18.70;58.60;;;;;;6246266;23;20137;-86
2022/05/28 02:28:03;;;;;;;1.60;1.50;;;18.70;58.60;;;;;;6219584;23;20156;-85
2022/05/28 02:30:29;;;;;;;1.70;1.40;;;18.80;58.60;;;;;;6195220;23;20145;-85
2022/05/28 02:33:00;;;;;;;2.08;1.30;;;18.80;58.60;;;;;;6170712;23;20141;-85
2022/05/28 02:35:26;;;;;;;1.60;1.50;;;18.80;58.70;;;;;;6219669;23;20138;-85
2022/05/28 02:37:51;;;;;;;1.55;1.45;;;18.80;58.60;;;;;;6194541;23;20223;-86
2022/05/28 02:40:17;;;;;;;1.52;1.42;;;18.80;58.70;;;;;;6194356;23;20130;-85
2022/05/28 02:42:43;;;;;;;1.23;1.13;;;18.80;58.60;;;;;;6170294;23;20655;-85
2022/05/28 02:45:09;;;;;;;1.50;1.40;;;18.80;58.60;;;;;;6169652;23;20528;-85
2022/05/28 02:47:34;;;;;;;1.33;1.23;;;18.70;58.60;;;;;;6170307;23;20631;-86
2022/05/28 02:50:00;;;;;;;1.50;1.40;;;18.80;58.70;;;;;;6219953;23;20153;-85
2022/05/28 02:52:26;;;;;;;1.55;1.45;;;18.70;58.60;;;;;;6219520;23;20225;-86
2022/05/28 02:54:51;;;;;;;1.70;1.60;;;18.70;58.70;;;;;;6194836;23;20256;-86
2022/05/28 02:57:17;;;;;;;1.20;1.10;;;18.70;58.70;;;;;;6194056;23;20561;-85
2022/05/28 02:59:43;;;;;;;1.77;1.52;;;18.70;58.70;;;;;;6194424;23;20126;-86
2022/05/28 03:02:08;;;;;;;1.30;1.20;;;18.70;58.60;;;;;;6246072;23;20169;-86
2022/05/28 03:04:34;;;;;;;1.58;1.48;;;18.70;58.70;;;;;;6219099;23;20619;-86
2022/05/28 03:07:00;;;;;;;1.20;1.10;;;18.80;58.70;;;;;;6219954;23;20224;-86
2022/05/28 03:09:25;;;;;;;1.35;1.25;;;18.70;58.60;;;;;;6219458;23;20152;-85
2022/05/28 03:11:51;;;;;;;1.50;1.40;;;18.70;58.60;;;;;;6219593;23;20257;-86
2022/05/28 03:14:17;;;;;;;1.50;1.40;;;18.70;58.50;;;;;;6194356;23;20144;-85
2022/05/28 03:16:43;;;;;;;1.63;1.30;;;18.80;58.70;;;;;;6169622;23;20144;-85
2022/05/28 03:19:09;;;;;;;1.30;1.20;;;18.70;58.60;;;;;;6194325;23;20168;-86
2022/05/28 03:21:35;;;;;;;1.40;1.27;;;18.70;58.70;;;;;;6169671;23;20184;-85
2022/05/28 03:24:00;;;;;;;1.55;1.45;;;18.70;58.70;;;;;;6219319;23;20129;-85
2022/05/28 03:26:28;;;;;;;1.50;1.40;;;18.70;58.70;;;;;;6219348;23;20187;-86
2022/05/28 03:28:56;;;;;;;1.20;1.10;;;18.70;58.70;;;;;;6194490;23;20130;-85
2022/05/28 03:31:22;;;;;;;2.47;1.33;;;18.70;58.70;;;;;;6219744;23;20161;-86
2022/05/28 03:33:48;;;;;;;1.60;1.50;;;18.70;58.70;;;;;;6194524;23;20595;-86
2022/05/28 03:36:13;;;;;;;1.40;1.30;;;18.70;58.70;;;;;;6169671;23;20146;-86
2022/05/28 03:38:39;;;;;;;1.35;1.25;;;18.70;58.70;;;;;;6151075;23;20201;-85
2022/05/28 03:41:04;;;;;;;1.70;1.60;;;18.70;58.70;;;;;;6163854;23;20182;-84
2022/05/28 03:43:30;;;;;;;1.40;1.30;;;18.70;58.70;;;;;;6189060;23;20134;-86
2022/05/28 03:45:56;;;;;;;1.45;1.30;;;18.70;58.70;;;;;;6163891;23;20664;-86
2022/05/28 03:48:21;;;;;;;1.90;1.35;;;18.70;58.70;;;;;;6189095;23;20465;-86
2022/05/28 03:50:47;;;;;;;1.55;1.45;;;18.70;58.70;;;;;;6163892;23;20541;-85
2022/05/28 03:53:13;;;;;;;1.20;1.10;;;18.70;58.70;;;;;;6188910;23;20457;-85
2022/05/28 03:55:39;;;;;;;1.60;1.50;;;18.70;58.70;;;;;;6164021;23;20150;-85
2022/05/28 03:58:06;;;;;;;1.35;1.25;;;18.70;58.80;;;;;;6164318;23;20587;-86
2022/05/28 04:00:31;;;;;;;1.40;1.30;;;18.70;58.80;;;;;;6140203;23;20192;-86
2022/05/28 04:02:58;;;;;;;1.40;1.30;;;18.70;58.70;;;;;;6164351;23;20146;-85
2022/05/28 04:05:24;;;;;;;1.40;1.30;;;18.70;58.70;;;;;;6164627;23;20500;-86
2022/05/28 04:07:49;;;;;;;1.35;1.25;;;18.70;58.70;;;;;;6164164;23;20131;-85
2022/05/28 04:10:15;;;;;;;1.38;1.27;;;18.70;58.70;;;;;;6165907;23;20137;-86
2022/05/28 04:12:41;;;;;;;1.40;1.30;;;18.70;58.70;;;;;;6166316;23;20278;-85
2022/05/28 04:15:07;;;;;;;1.48;1.38;;;18.70;58.70;;;;;;6141627;23;20165;-86
2022/05/28 04:17:33;;;;;;;1.30;1.20;;;18.70;58.70;;;;;;6165983;23;20130;-86
2022/05/28 04:19:58;;;;;;;1.33;1.27;;;18.60;58.70;;;;;;6191062;23;20138;-86
2022/05/28 04:22:25;;;;;;;1.30;1.20;;;18.70;58.70;;;;;;6190471;23;20182;-85
2022/05/28 04:24:51;;;;;;;1.45;1.35;;;18.70;58.80;;;;;;6141787;23;20143;-86
2022/05/28 04:27:16;;;;;;;1.25;1.15;;;18.70;58.80;;;;;;6166709;23;20173;-86
2022/05/28 04:29:42;;;;;;;1.40;1.30;;;18.70;58.80;;;;;;6165710;23;20157;-86
2022/05/28 04:32:08;;;;;;;1.52;1.42;;;18.70;58.80;;;;;;6191015;23;20553;-86
2022/05/28 04:34:34;;;;;;;1.40;1.30;;;18.80;58.90;;;;;;6165348;23;20145;-85
2022/05/28 04:36:59;;;;;;;1.50;1.40;;;18.70;58.80;;;;;;6165479;23;20134;-85
2022/05/28 04:39:25;;;;;;;1.40;1.30;;;18.70;58.80;;;;;;6192623;23;20197;-85
2022/05/28 04:41:50;;;;;;;1.70;1.52;;;18.70;58.80;;;;;;6170972;23;20184;-86
2022/05/28 04:44:16;;;;;;;1.40;1.30;;;18.70;58.80;;;;;;6221079;23;20136;-86
2022/05/28 04:46:42;;;;;;;1.60;1.50;;;18.70;58.80;;;;;;6195517;23;20130;-86
2022/05/28 04:49:07;;;;;;;2.35;1.60;;;18.70;58.80;;;;;;6247364;23;20133;-86
2022/05/28 04:51:33;;;;;;;1.73;1.30;;;18.70;58.80;;;;;;6247536;23;20129;-85
2022/05/28 04:53:59;;;;;;;1.50;1.38;;;18.70;58.80;;;;;;6220521;23;20129;-86
2022/05/28 04:56:24;;;;;;;1.63;1.40;;;18.70;58.80;;;;;;6170832;23;20232;-85
2022/05/28 04:58:50;;;;;;;1.50;1.40;;;18.60;58.80;;;;;;6247170;23;20130;-85
2022/05/28 05:01:17;;;;;;;1.40;1.30;;;18.60;58.80;;;;;;6220615;23;20176;-85
2022/05/28 05:03:42;;;;;;;1.20;1.10;;;18.70;58.80;;;;;;6195513;23;20612;-85
2022/05/28 05:06:08;;;;;;;1.50;1.40;;;18.70;58.70;;;;;;6247073;23;20170;-85
2022/05/28 05:08:33;;;;;;;1.30;1.20;;;18.70;58.80;;;;;;6220523;23;20130;-86
2022/05/28 05:11:00;;;;;;;1.55;1.42;;;18.70;58.90;;;;;;6170270;23;20217;-86
2022/05/28 05:13:26;;;;;;;1.50;1.38;;;18.70;58.90;;;;;;6195617;23;20208;-85
2022/05/28 05:15:51;;;;;;;1.30;1.20;;;18.70;58.80;;;;;;6195717;23;20149;-86
2022/05/28 05:18:17;;;;;;;1.40;1.30;;;18.70;58.90;;;;;;6195030;23;20574;-86
2022/05/28 05:20:43;;;;;;;1.40;1.30;;;18.70;58.80;;;;;;6246617;23;20165;-85
2022/05/28 05:23:08;;;;;;;1.50;1.40;;;18.70;58.80;;;;;;6247226;23;20138;-85
2022/05/28 05:25:34;;;;;;;1.38;1.27;;;18.70;58.90;;;;;;6220207;23;20133;-86
2022/05/28 05:27:59;;;;;;;1.50;1.40;;;18.70;58.90;;;;;;6220214;23;20453;-85
2022/05/28 05:30:25;;;;;;;1.40;1.30;;;18.70;58.90;;;;;;6195115;23;20212;-85
2022/05/28 05:32:51;;;;;;;1.50;1.40;;;18.70;58.80;;;;;;6220231;23;20134;-86
2022/05/28 05:35:17;;;;;;;1.67;1.40;;;18.70;58.80;;;;;;6194869;23;20153;-86
2022/05/28 05:37:42;;;;;;;1.10;1.10;;;18.70;58.80;;;;;;6215062;23;20182;-85
2022/05/28 05:40:08;;;;;;;1.60;1.50;;;18.70;59.00;;;;;;6165881;23;20176;-85
2022/05/28 05:42:34;;;;;;;1.30;1.20;;;18.70;59.00;;;;;;6195498;23;20173;-86
2022/05/28 05:45:00;;;;;;;1.20;1.10;;;18.60;58.90;;;;;;6219984;23;20137;-85
2022/05/28 05:47:25;;;;;;;1.27;1.17;;;18.60;58.90;;;;;;6195473;23;20195;-85
2022/05/28 05:49:51;;;;;;;1.33;1.23;;;18.70;58.90;;;;;;6220257;23;20557;-85
2022/05/28 05:52:17;;;;;;;1.40;1.30;;;18.70;59.00;;;;;;6219838;23;20149;-85
2022/05/28 05:54:42;;;;;;;1.40;1.30;;;18.60;59.00;;;;;;6194928;23;20137;-86
2022/05/28 05:57:08;;;;;;;1.50;1.40;;;18.60;58.90;;;;;;6246577;23;20200;-85
2022/05/28 05:59:34;;;;;;;1.30;1.20;;;18.60;58.90;;;;;;6170115;23;20137;-85
2022/05/28 06:02:00;;;;;;;1.48;1.38;;;18.60;58.90;;;;;;6195174;23;20166;-85
2022/05/28 06:04:25;;;;;;;1.30;1.20;;;18.60;58.90;;;;;;6220137;23;20232;-85
2022/05/28 06:06:51;;;;;;;1.25;1.20;;;18.60;59.70;;;;;;6195061;23;20316;-85
2022/05/28 06:09:16;;;;;;;1.17;1.15;;;18.70;59.00;;;;;;6194613;23;20137;-85
2022/05/28 06:11:42;;;;;;;1.30;1.20;;;18.60;58.90;;;;;;6170001;23;20142;-85
2022/05/28 06:14:08;;;;;;;1.33;1.23;;;18.60;58.90;;;;;;6219535;23;20196;-86
2022/05/28 06:16:33;;;;;;;1.42;1.33;;;18.70;58.70;;;;;;6194467;23;20172;-85
2022/05/28 06:18:59;;;;;;;1.50;1.40;;;18.60;58.80;;;;;;6220260;23;20137;-86
2022/05/28 06:21:26;;;;;;;2.75;1.30;;;18.70;58.80;;;;;;6194490;23;20161;-86
2022/05/28 06:23:51;;;;;;;1.15;1.05;;;18.70;58.70;;;;;;6194556;23;20149;-86
2022/05/28 06:26:17;;;;;;;1.40;1.30;;;18.70;58.80;;;;;;6194704;23;20138;-85
2022/05/28 06:28:43;;;;;;;1.40;1.30;;;18.70;58.70;;;;;;6219670;23;20136;-85
2022/05/28 06:31:10;;;;;;;1.40;1.30;;;18.70;58.70;;;;;;6219947;23;20165;-85
2022/05/28 06:33:36;;;;;;;1.30;1.20;;;18.70;58.70;;;;;;6169863;23;20573;-86
2022/05/28 06:36:02;;;;;;;1.48;1.23;;;18.70;58.80;;;;;;6219436;23;20134;-85
2022/05/28 06:38:28;;;;;;;1.60;1.50;;;18.70;58.90;;;;;;6179009;23;20190;-86
2022/05/28 06:40:54;;;;;;;1.63;1.38;;;18.70;59.00;;;;;;6164343;23;20177;-86
2022/05/28 06:43:20;;;;;;;1.20;1.10;;;18.70;58.90;;;;;;6164633;23;20158;-86
2022/05/28 06:45:46;;;;;;;1.30;1.20;;;18.70;58.90;;;;;;6164278;23;20142;-86
2022/05/28 06:48:12;;;;;;;2.47;1.40;;;18.60;59.00;;;;;;6163986;23;20192;-85
2022/05/28 06:53:23;;;;;;;1.30;1.20;;;18.70;59.00;;;;;;6172976;23;20192;-86
2022/05/28 06:55:48;;;;;;;1.40;1.30;;;18.70;58.90;;;;;;6140676;23;20150;-86
2022/05/28 06:58:14;;;;;;;1.35;1.20;;;18.70;58.90;;;;;;6164351;23;20160;-86
2022/05/28 07:00:40;;;;;;;1.40;1.30;;;18.70;58.90;;;;;;6139604;23;20177;-86
2022/05/28 07:03:06;;;;;;;1.88;1.30;;;18.60;58.90;;;;;;6164127;23;20138;-87
2022/05/28 07:05:31;;;;;;;2.75;1.30;;;18.70;59.20;;;;;;6164890;23;20146;-86
2022/05/28 07:07:57;;;;;;;3.70;1.30;;;18.70;59.20;;;;;;6189054;23;20146;-86
2022/05/28 07:10:23;;;;;;;2.10;1.40;;;18.70;59.20;;;;;;6164177;23;20134;-86
2022/05/28 07:12:49;;;;;;;1.60;1.50;;;18.70;59.30;;;;;;6164939;23;20454;-86
2022/05/28 07:15:14;;;;;;;1.45;1.20;;;18.70;59.10;;;;;;6164291;23;20158;-86
2022/05/28 07:17:41;;;;;;;1.05;1.05;;;18.70;59.10;;;;;;6189090;23;20617;-86
2022/05/28 07:20:07;;;;;;;1.60;1.48;;;18.70;59.10;;;;;;6164721;23;20214;-87
2022/05/28 07:22:33;;;;;;;1.80;1.30;;;18.70;59.10;;;;;;6164200;23;20162;-86
2022/05/28 07:24:59;;;;;;;1.40;1.30;;;18.70;59.10;;;;;;6163989;23;20146;-86
2022/05/28 07:27:27;;;;;;;1.20;1.10;;;18.80;59.20;;;;;;6189109;23;20142;-86
2022/05/28 07:29:54;;;;;;;1.95;1.25;;;18.70;59.10;;;;;;6189306;23;20145;-86
2022/05/28 07:32:20;;;;;;;1.50;1.30;;;18.70;59.10;;;;;;6164296;23;20153;-86
2022/05/28 07:34:46;;;;;;;1.17;1.13;;;18.70;59.10;;;;;;6164062;23;20130;-86
2022/05/28 07:37:11;;;;;;;1.30;1.20;;;18.70;58.90;;;;;;6189159;23;20134;-86
2022/05/28 07:39:37;;;;;;;1.40;1.30;;;18.80;59.10;;;;;;6213477;23;20194;-86
2022/05/28 07:42:04;;;;;;;1.40;1.25;;;18.70;59.00;;;;;;6240411;23;20172;-86
2022/05/28 07:44:30;;;;;;;1.30;1.20;;;18.60;58.90;;;;;;6171141;23;20153;-86
2022/05/28 07:46:57;;;;;;;1.00;1.00;;;18.70;58.80;;;;;;6171463;23;20149;-86
2022/05/28 07:49:22;;;;;;;2.05;1.20;;;18.70;59.00;;;;;;6195476;23;20149;-85
2022/05/28 07:51:48;;;;;;;1.88;1.30;;;18.70;59.10;;;;;;6196090;23;20229;-86
2022/05/28 07:54:16;;;;;;;1.23;1.13;;;18.70;58.80;;;;;;6247772;23;20191;-86
2022/05/28 07:56:42;;;;;;;1.80;1.40;;;18.70;59.00;;;;;;6221435;23;20125;-86
2022/05/28 07:59:07;;;;;;;1.35;1.25;;;18.60;59.00;;;;;;6195971;23;20141;-86
2022/05/28 08:01:35;;;;;;;1.20;1.10;;;18.70;59.10;;;;;;6170851;23;20181;-86
2022/05/28 08:04:00;;;;;;;1.30;1.20;;;18.70;59.10;;;;;;6221428;23;20461;-87
2022/05/28 08:06:26;;;;;;;1.30;1.20;;;18.60;58.90;;;;;;6171032;23;20148;-86
2022/05/28 08:08:52;;;;;;;1.98;1.40;;;18.70;58.90;;;;;;6221747;23;20212;-85
2022/05/28 08:11:22;;;;;;;1.55;1.45;;;18.70;58.80;;;;;;6198789;23;20149;-86
2022/05/28 08:13:48;;;;;;;1.40;1.20;;;18.80;58.60;;;;;;6174405;23;20137;-88
2022/05/28 08:16:15;;;;;;;1.33;1.23;;;18.80;58.90;;;;;;6223017;23;20126;-86
2022/05/28 08:18:41;;;;;;;1.50;1.40;;;18.90;59.00;;;;;;6224292;23;20484;-86
2022/05/28 08:23:48;;;;;;;1.30;1.20;;;18.70;59.10;;;;;;6205977;23;20157;-87
2022/05/28 08:26:19;;;;;;;2.33;1.33;;;18.80;59.00;;;;;;6223968;23;20133;-87
2022/05/28 08:28:44;;;;;;;4.18;1.60;;;18.80;58.80;;;;;;6202500;23;20208;-86
2022/05/28 08:31:10;;;;;;;10.30;1.73;;;18.90;58.90;;;;;;6176162;23;20168;-87
2022/05/28 08:33:35;;;;;;;11.85;1.83;;;18.90;58.90;;;;;;6200067;23;20130;-87
2022/05/28 08:36:02;;;;;;;8.93;1.80;;;18.80;59.10;;;;;;6205073;23;20129;-87
2022/05/28 08:38:28;;;;;;;12.35;1.50;;;18.80;59.00;;;;;;6188877;23;20193;-87
2022/05/28 08:41:04;;;;;;;7.43;1.40;;;18.80;58.90;;;;;;6171058;23;20181;-87
2022/05/28 08:43:31;;;;;;;5.72;1.50;;;18.80;59.00;;;;;;6175662;23;20169;-87
2022/05/28 08:46:00;;;;;;;4.28;1.42;;;18.90;58.90;;;;;;6149776;23;20158;-86
2022/05/28 08:48:43;;;;;;;4.22;1.48;;;18.90;58.90;;;;;;6147764;23;20154;-86
2022/05/28 08:51:23;;;;;;;1.73;1.60;;;18.90;59.10;;;;;;6146190;23;20259;-86
2022/05/28 08:53:55;;;;;;;3.83;1.40;;;18.90;58.80;;;;;;6198601;23;20275;-87
2022/05/28 08:56:24;;;;;;;4.60;1.60;;;18.90;58.90;;;;;;6174018;23;20157;-87
2022/05/28 08:59:00;;;;;;;2.05;1.50;;;19.00;58.60;;;;;;6150937;23;20150;-86
2022/05/28 09:01:26;;;;;;;2.15;1.30;;;19.00;58.50;;;;;;6147293;23;20228;-87
2022/05/28 09:03:54;;;;;;;2.97;1.58;;;18.90;58.50;;;;;;6172701;23;20170;-86
2022/05/28 09:06:24;;;;;;;3.47;1.38;;;18.90;58.50;;;;;;6169783;23;20222;-86
2022/05/28 09:08:52;;;;;;;2.42;1.65;;;18.90;58.20;;;;;;6144326;23;20472;-85
2022/05/28 09:11:33;;;;;;;1.60;1.30;;;19.00;58.40;;;;;;6169058;23;20154;-86
2022/05/28 09:14:08;;;;;;;3.70;1.33;;;18.90;58.70;;;;;;6195377;23;20216;-86
2022/05/28 09:16:37;;;;;;;7.22;1.58;;;19.00;59.50;;;;;;6143402;23;20142;-86
2022/05/28 09:19:07;;;;;;;3.40;1.40;;;18.90;58.50;;;;;;6170322;23;20135;-87
2022/05/28 09:21:32;;;;;;;9.90;1.50;;;19.00;59.00;;;;;;6172600;23;20158;-86
2022/05/28 09:24:04;;;;;;;3.45;1.40;;;18.90;58.40;;;;;;6169582;23;20215;-87
2022/05/28 09:26:36;;;;;;;1.98;1.30;;;19.00;58.10;;;;;;6171003;23;20143;-86
2022/05/28 09:29:15;;;;;;;1.63;1.40;;;19.00;57.70;;;;;;6197341;23;20154;-87
2022/05/28 09:32:17;;;;;;;1.63;1.50;;;19.10;58.30;;;;;;6147351;23;20150;-87
2022/05/28 09:35:05;;;;;;;5.28;2.15;;;19.10;58.30;;;;;;6143623;23;20153;-87
2022/05/28 09:37:40;;;;;;;3.78;1.70;;;19.10;58.40;;;;;;6162218;23;20150;-87
2022/05/28 09:40:17;;;;;;;3.65;1.70;;;19.10;58.20;;;;;;6164532;23;20139;-87
2022/05/28 09:43:10;;;;;;;5.35;1.80;;;19.10;58.50;;;;;;6115279;23;20185;-86
2022/05/28 09:45:50;;;;;;;3.78;1.65;;;19.10;58.10;;;;;;6161905;23;20141;-86
2022/05/28 09:48:18;;;;;;;2.50;1.70;;;19.10;57.90;;;;;;6139344;23;20201;-87
2022/05/28 09:50:44;;;;;;;3.45;1.45;;;19.10;58.50;;;;;;6116887;23;20142;-87
2022/05/28 09:56:14;;;;;;;2.72;1.48;;;19.10;58.10;;;;;;6165393;23;20215;-87
2022/05/28 09:58:45;;;;;;;4.53;1.70;;;19.10;58.00;;;;;;6146213;23;20135;-87
2022/05/28 10:01:18;;;;;;;3.40;1.63;;;19.10;58.20;;;;;;6115340;23;20190;-87
2022/05/28 10:06:23;;;;;;;9.15;1.80;;;19.10;58.50;;;;;;6197070;23;20145;-86
2022/05/28 10:08:48;;;;;;;2.75;1.50;;;19.00;58.60;;;;;;6197790;23;20180;-87
2022/05/28 10:11:15;;;;;;;2.00;1.55;;;19.10;58.90;;;;;;6173057;23;20149;-87
2022/05/28 10:13:46;;;;;;;2.85;1.85;;;19.10;58.70;;;;;;6197686;23;20141;-86
2022/05/28 10:16:12;;;;;;;2.05;1.50;;;19.10;58.50;;;;;;6174169;23;20149;-86
2022/05/28 10:18:39;;;;;;;6.30;1.67;;;19.10;59.20;;;;;;6199280;23;20589;-86
2022/05/28 10:21:10;;;;;;;4.70;1.60;;;19.10;59.20;;;;;;6174846;23;20184;-86
2022/05/28 10:23:38;;;;;;;2.33;1.20;;;19.10;58.80;;;;;;6200431;23;20130;-87
2022/05/28 10:26:04;;;;;;;2.28;1.50;;;19.10;58.40;;;;;;6173765;23;20152;-86
2022/05/28 10:28:31;;;;;;;2.55;1.63;;;19.10;58.80;;;;;;6225150;23;20141;-86
2022/05/28 10:31:05;;;;;;;2.33;1.50;;;19.10;58.40;;;;;;6174719;23;20472;-86
2022/05/28 10:33:32;;;;;;;3.45;1.48;;;19.10;58.80;;;;;;6201912;23;20148;-86
2022/05/28 10:36:08;;;;;;;1.80;1.20;;;19.10;58.20;;;;;;6195405;23;20141;-86
2022/05/28 10:38:33;;;;;;;3.58;1.60;;;19.10;58.70;;;;;;6160702;23;20197;-86
2022/05/28 10:41:02;;;;;;;3.28;1.80;;;19.10;58.30;;;;;;6146195;23;20185;-86
2022/05/28 10:43:30;;;;;;;3.72;1.42;;;19.10;58.40;;;;;;6194049;23;20516;-86
2022/05/28 10:46:28;;;;;;;3.72;1.60;;;19.10;58.50;;;;;;6145690;23;20149;-85
2022/05/28 10:49:07;;;;;;;4.28;1.40;;;19.10;58.50;;;;;;6168138;23;20131;-85
2022/05/28 10:52:10;;;;;;;1.60;1.50;;;19.10;58.70;;;;;;6169202;23;20233;-85
2022/05/28 10:55:07;;;;;;;4.05;1.38;;;19.10;58.50;;;;;;6170708;23;20173;-86
2022/05/28 10:57:47;;;;;;;5.10;1.40;;;19.10;58.50;;;;;;6141419;23;20193;-86
2022/05/28 11:00:19;;;;;;;3.67;1.38;;;19.10;58.50;;;;;;6167563;23;20145;-86
2022/05/28 11:03:12;;;;;;;2.95;1.35;;;19.10;58.60;;;;;;6146714;23;20181;-87
2022/05/28 11:05:49;;;;;;;2.13;1.25;;;19.10;58.30;;;;;;6162616;23;20144;-87
2022/05/28 11:09:12;;;;;;;6.55;1.80;;;19.10;58.50;;;;;;6218065;23;20208;-86
2022/05/28 11:11:52;;;;;;;5.32;1.50;;;19.00;58.50;;;;;;6164469;23;20162;-87
2022/05/28 11:14:27;;;;;;;2.58;1.17;;;19.10;58.50;;;;;;6165321;23;20131;-86
2022/05/28 11:17:15;;;;;;;3.03;1.40;;;19.10;58.60;;;;;;6162964;23;20241;-86
2022/05/28 11:20:06;;;;;;;5.68;1.35;;;19.00;58.50;;;;;;6162792;23;20160;-86
2022/05/28 11:23:13;;;;;;;6.40;1.33;;;19.10;58.30;;;;;;6145629;23;20568;-87
2022/05/28 11:25:55;;;;;;;2.30;1.33;;;19.10;58.40;;;;;;6164388;23;20177;-86
2022/05/28 11:28:39;;;;;;;4.38;1.70;;;19.00;58.70;;;;;;6164948;23;20173;-86
2022/05/28 11:31:42;;;;;;;1.90;1.35;;;19.10;58.90;;;;;;6166953;23;20478;-88
2022/05/28 11:34:16;;;;;;;3.95;1.60;;;19.00;58.90;;;;;;6177830;23;20266;-86
2022/05/28 11:36:46;;;;;;;4.72;1.52;;;19.00;59.30;;;;;;6164791;23;20149;-85
2022/05/28 11:39:21;;;;;;;4.32;1.30;;;19.00;59.20;;;;;;6140802;23;20764;-86
2022/05/28 11:41:50;;;;;;;5.20;1.42;;;19.00;58.90;;;;;;6146020;23;20219;-86
2022/05/28 11:44:26;;;;;;;9.38;1.70;;;19.00;58.30;;;;;;6220121;23;20141;-85
2022/05/28 11:47:11;;;;;;;4.43;1.58;;;19.00;58.90;;;;;;6167869;23;20184;-86
2022/05/28 11:52:39;;;;;;;5.07;1.50;;;19.00;59.00;;;;;;6217119;23;20181;-86
2022/05/28 11:55:50;;;;;;;4.00;1.60;;;19.00;58.90;;;;;;6190245;23;20126;-87
2022/05/28 11:58:20;;;;;;;7.43;1.70;;;19.00;59.00;;;;;;6140860;23;20161;-87
2022/05/28 12:00:52;;;;;;;11.52;2.25;;;19.00;59.10;;;;;;6106100;23;20155;-85
2022/05/28 12:03:22;;;;;;;5.10;1.63;;;19.00;59.20;;;;;;6106150;23;20530;-85
2022/05/28 12:05:54;;;;;;;5.45;1.80;;;19.00;58.80;;;;;;6082626;23;20160;-85
2022/05/28 12:08:26;;;;;;;5.75;1.60;;;19.00;58.90;;;;;;6081815;23;20152;-85
2022/05/28 12:10:56;;;;;;;5.53;1.40;;;19.00;59.30;;;;;;6130199;23;20645;-87
2022/05/28 12:13:33;;;;;;;4.75;1.60;;;19.00;58.80;;;;;;6105432;23;20147;-87
2022/05/28 12:16:05;;;;;;;5.53;1.50;;;19.10;58.90;;;;;;6110339;23;20178;-86
2022/05/28 12:18:34;;;;;;;6.80;1.63;;;19.00;58.50;;;;;;6111722;23;20179;-86
2022/05/28 12:21:03;;;;;;;3.55;1.40;;;19.10;58.20;;;;;;6087823;23;20218;-86
2022/05/28 12:23:32;;;;;;;4.18;1.60;;;19.10;58.20;;;;;;6112250;23;20156;-86
2022/05/28 12:26:03;;;;;;;5.05;1.50;;;19.10;58.10;;;;;;6088843;23;20178;-86
2022/05/28 12:28:44;;;;;;;2.58;1.30;;;19.10;58.20;;;;;;6118805;23;20178;-86
2022/05/28 12:31:20;;;;;;;2.58;1.50;;;19.00;58.20;;;;;;6176211;23;20188;-86
2022/05/28 12:33:50;;;;;;;5.43;1.67;;;19.00;58.20;;;;;;6223568;23;20130;-87
2022/05/28 12:36:26;;;;;;;5.00;1.75;;;19.10;58.20;;;;;;6223171;23;20410;-86
2022/05/28 12:39:03;;;;;;;4.95;1.80;;;19.10;58.40;;;;;;6172885;23;20193;-86
2022/05/28 12:41:34;;;;;;;3.10;1.45;;;19.10;58.30;;;;;;6198478;23;20208;-86
2022/05/28 12:44:08;;;;;;;4.80;1.23;;;19.10;58.30;;;;;;6199332;23;20134;-86
2022/05/28 12:46:41;;;;;;;4.50;1.40;;;19.10;57.90;;;;;;6196394;23;20166;-86
2022/05/28 12:49:13;;;;;;;3.08;1.38;;;19.10;58.30;;;;;;6195915;23;20138;-86
2022/05/28 12:52:22;;;;;;;2.33;1.60;;;19.10;58.50;;;;;;6220926;23;20131;-86
2022/05/28 12:54:57;;;;;;;5.07;1.60;;;19.10;58.40;;;;;;6221005;23;20134;-86
2022/05/28 12:57:29;;;;;;;3.65;1.70;;;19.10;58.80;;;;;;6219205;23;20641;-86
2022/05/28 13:00:03;;;;;;;5.57;1.83;;;19.10;58.80;;;;;;6170449;23;20146;-86
2022/05/28 13:02:34;;;;;;;3.67;1.95;;;19.20;58.50;;;;;;6146117;23;20225;-86
2022/05/28 13:05:05;;;;;;;2.63;1.30;;;19.10;58.80;;;;;;6145990;23;20157;-86
2022/05/28 13:07:35;;;;;;;6.85;1.70;;;19.10;58.80;;;;;;6196803;23;20130;-87
2022/05/28 13:10:06;;;;;;;3.47;1.65;;;19.10;59.00;;;;;;6171833;23;20621;-87
2022/05/28 13:12:37;;;;;;;3.28;1.60;;;19.10;58.40;;;;;;6217763;23;20142;-86